sensor_id;sensor_type;location;lat;lon;timestamp;P1;durP1;ratioP1;P2;durP2;ratioP2
49384;SDS011;36795;45.028;38.968;2023-02-12T00:02:24;56.88;;;26.08;;
49384;SDS011;36795;45.028;38.968;2023-02-12T00:05:11;55.75;;;25.85;;
49384;SDS011;36795;45.028;38.968;2023-02-12T00:07:58;61.58;;;26.52;;
49384;SDS011;36795;45.028;38.968;2023-02-12T00:10:44;57.53;;;25.33;;
49384;SDS011;36795;45.028;38.968;2023-02-12T00:13:30;58.67;;;25.45;;
49384;SDS011;36795;45.028;38.968;2023-02-12T00:16:18;52.28;;;23.12;;
49384;SDS011;36795;45.028;38.968;2023-02-12T00:19:04;56.50;;;25.27;;
49384;SDS011;36795;45.028;38.968;2023-02-12T00:21:51;51.20;;;23.08;;
49384;SDS011;36795;45.028;38.968;2023-02-12T00:24:37;55.30;;;25.10;;
49384;SDS011;36795;45.028;38.968;2023-02-12T00:27:23;54.92;;;23.45;;
49384;SDS011;36795;45.028;38.968;2023-02-12T00:30:09;55.58;;;23.10;;
49384;SDS011;36795;45.028;38.968;2023-02-12T00:32:56;58.87;;;26.35;;
49384;SDS011;36795;45.028;38.968;2023-02-12T00:35:42;53.33;;;24.87;;
49384;SDS011;36795;45.028;38.968;2023-02-12T00:38:28;52.03;;;25.08;;
49384;SDS011;36795;45.028;38.968;2023-02-12T00:41:14;51.50;;;24.00;;
49384;SDS011;36795;45.028;38.968;2023-02-12T00:44:01;46.25;;;23.08;;
49384;SDS011;36795;45.028;38.968;2023-02-12T00:46:47;47.28;;;23.35;;
49384;SDS011;36795;45.028;38.968;2023-02-12T00:49:34;53.67;;;23.75;;
49384;SDS011;36795;45.028;38.968;2023-02-12T00:52:20;50.15;;;22.40;;
49384;SDS011;36795;45.028;38.968;2023-02-12T00:55:07;48.67;;;21.75;;
49384;SDS011;36795;45.028;38.968;2023-02-12T00:57:53;49.85;;;21.75;;
49384;SDS011;36795;45.028;38.968;2023-02-12T01:00:39;52.55;;;23.23;;
49384;SDS011;36795;45.028;38.968;2023-02-12T01:03:26;52.60;;;22.52;;
49384;SDS011;36795;45.028;38.968;2023-02-12T01:06:12;47.72;;;22.62;;
49384;SDS011;36795;45.028;38.968;2023-02-12T01:08:58;51.15;;;23.00;;
49384;SDS011;36795;45.028;38.968;2023-02-12T01:11:46;53.50;;;22.87;;
49384;SDS011;36795;45.028;38.968;2023-02-12T01:14:33;52.97;;;24.15;;
49384;SDS011;36795;45.028;38.968;2023-02-12T01:17:21;48.65;;;22.17;;
49384;SDS011;36795;45.028;38.968;2023-02-12T01:20:08;52.60;;;22.40;;
49384;SDS011;36795;45.028;38.968;2023-02-12T01:22:55;51.70;;;22.83;;
49384;SDS011;36795;45.028;38.968;2023-02-12T01:25:41;47.97;;;22.20;;
49384;SDS011;36795;45.028;38.968;2023-02-12T01:28:27;48.28;;;20.37;;
49384;SDS011;36795;45.028;38.968;2023-02-12T01:31:14;46.83;;;20.55;;
49384;SDS011;36795;45.028;38.968;2023-02-12T01:34:01;51.50;;;23.92;;
49384;SDS011;36795;45.028;38.968;2023-02-12T01:36:48;44.88;;;20.95;;
49384;SDS011;36795;45.028;38.968;2023-02-12T01:39:34;43.58;;;18.10;;
49384;SDS011;36795;45.028;38.968;2023-02-12T01:42:20;40.92;;;17.25;;
49384;SDS011;36795;45.028;38.968;2023-02-12T01:47:59;36.15;;;14.25;;
49384;SDS011;36795;45.028;38.968;2023-02-12T01:50:46;35.22;;;13.32;;
49384;SDS011;36795;45.028;38.968;2023-02-12T01:53:34;36.72;;;15.35;;
49384;SDS011;36795;45.028;38.968;2023-02-12T01:56:22;37.00;;;16.02;;
49384;SDS011;36795;45.028;38.968;2023-02-12T01:59:09;37.15;;;14.82;;
49384;SDS011;36795;45.028;38.968;2023-02-12T02:01:56;35.00;;;14.57;;
49384;SDS011;36795;45.028;38.968;2023-02-12T02:04:44;36.72;;;14.07;;
49384;SDS011;36795;45.028;38.968;2023-02-12T02:07:31;33.83;;;13.52;;
49384;SDS011;36795;45.028;38.968;2023-02-12T02:10:18;33.00;;;13.93;;
49384;SDS011;36795;45.028;38.968;2023-02-12T02:13:04;36.45;;;13.90;;
49384;SDS011;36795;45.028;38.968;2023-02-12T02:16:19;34.63;;;13.88;;
49384;SDS011;36795;45.028;38.968;2023-02-12T02:28:00;31.20;;;11.80;;
49384;SDS011;36795;45.028;38.968;2023-02-12T02:33:38;31.65;;;12.57;;
49384;SDS011;36795;45.028;38.968;2023-02-12T02:42:10;28.70;;;11.98;;
49384;SDS011;36795;45.028;38.968;2023-02-12T02:45:10;37.58;;;15.43;;
49384;SDS011;36795;45.028;38.968;2023-02-12T02:47:58;30.80;;;11.00;;
49384;SDS011;36795;45.028;38.968;2023-02-12T02:50:47;29.33;;;11.45;;
49384;SDS011;36795;45.028;38.968;2023-02-12T02:53:36;31.02;;;10.80;;
49384;SDS011;36795;45.028;38.968;2023-02-12T02:56:23;29.67;;;11.57;;
49384;SDS011;36795;45.028;38.968;2023-02-12T02:59:12;30.70;;;11.95;;
49384;SDS011;36795;45.028;38.968;2023-02-12T03:02:00;31.17;;;11.48;;
49384;SDS011;36795;45.028;38.968;2023-02-12T03:04:51;32.25;;;12.13;;
49384;SDS011;36795;45.028;38.968;2023-02-12T03:07:41;30.85;;;12.07;;
49384;SDS011;36795;45.028;38.968;2023-02-12T03:10:30;30.23;;;11.12;;
49384;SDS011;36795;45.028;38.968;2023-02-12T03:13:26;30.20;;;10.70;;
49384;SDS011;36795;45.028;38.968;2023-02-12T03:16:19;30.92;;;11.85;;
49384;SDS011;36795;45.028;38.968;2023-02-12T03:19:15;33.67;;;13.25;;
49384;SDS011;36795;45.028;38.968;2023-02-12T03:24:52;29.87;;;11.18;;
49384;SDS011;36795;45.028;38.968;2023-02-12T03:27:41;32.03;;;12.32;;
49384;SDS011;36795;45.028;38.968;2023-02-12T03:30:34;34.08;;;12.63;;
49384;SDS011;36795;45.028;38.968;2023-02-12T03:36:18;37.55;;;15.30;;
49384;SDS011;36795;45.028;38.968;2023-02-12T03:39:53;39.75;;;17.62;;
49384;SDS011;36795;45.028;38.968;2023-02-12T03:48:25;37.88;;;15.98;;
49384;SDS011;36795;45.028;38.968;2023-02-12T03:51:16;37.03;;;15.27;;
49384;SDS011;36795;45.028;38.968;2023-02-12T03:54:04;36.42;;;15.65;;
49384;SDS011;36795;45.028;38.968;2023-02-12T03:56:59;39.75;;;15.50;;
49384;SDS011;36795;45.028;38.968;2023-02-12T03:59:47;34.50;;;13.45;;
49384;SDS011;36795;45.028;38.968;2023-02-12T04:02:33;32.78;;;12.93;;
49384;SDS011;36795;45.028;38.968;2023-02-12T04:05:24;32.40;;;12.88;;
49384;SDS011;36795;45.028;38.968;2023-02-12T04:08:10;32.92;;;12.65;;
49384;SDS011;36795;45.028;38.968;2023-02-12T04:22:44;33.53;;;13.82;;
49384;SDS011;36795;45.028;38.968;2023-02-12T04:25:51;32.85;;;13.77;;
49384;SDS011;36795;45.028;38.968;2023-02-12T04:29:00;32.17;;;12.68;;
49384;SDS011;36795;45.028;38.968;2023-02-12T04:32:03;28.15;;;10.60;;
49384;SDS011;36795;45.028;38.968;2023-02-12T04:37:40;29.15;;;10.10;;
49384;SDS011;36795;45.028;38.968;2023-02-12T04:40:26;27.05;;;9.50;;
49384;SDS011;36795;45.028;38.968;2023-02-12T04:43:13;33.42;;;14.80;;
49384;SDS011;36795;45.028;38.968;2023-02-12T04:46:00;31.50;;;11.75;;
49384;SDS011;36795;45.028;38.968;2023-02-12T04:48:56;29.15;;;9.23;;
49384;SDS011;36795;45.028;38.968;2023-02-12T04:51:44;30.25;;;9.68;;
49384;SDS011;36795;45.028;38.968;2023-02-12T04:54:30;31.27;;;8.82;;
49384;SDS011;36795;45.028;38.968;2023-02-12T04:57:16;26.75;;;9.57;;
49384;SDS011;36795;45.028;38.968;2023-02-12T05:00:05;31.90;;;10.57;;
49384;SDS011;36795;45.028;38.968;2023-02-12T05:02:52;34.50;;;12.85;;
49384;SDS011;36795;45.028;38.968;2023-02-12T05:05:38;30.12;;;11.12;;
49384;SDS011;36795;45.028;38.968;2023-02-12T05:08:25;25.98;;;8.48;;
49384;SDS011;36795;45.028;38.968;2023-02-12T05:11:11;26.30;;;9.10;;
49384;SDS011;36795;45.028;38.968;2023-02-12T05:13:57;26.20;;;9.55;;
49384;SDS011;36795;45.028;38.968;2023-02-12T05:16:43;30.48;;;9.90;;
49384;SDS011;36795;45.028;38.968;2023-02-12T05:19:30;27.85;;;10.98;;
49384;SDS011;36795;45.028;38.968;2023-02-12T05:22:16;30.15;;;11.23;;
49384;SDS011;36795;45.028;38.968;2023-02-12T05:25:03;73.85;;;38.15;;
49384;SDS011;36795;45.028;38.968;2023-02-12T05:27:49;34.50;;;14.18;;
49384;SDS011;36795;45.028;38.968;2023-02-12T05:30:36;32.08;;;12.63;;
49384;SDS011;36795;45.028;38.968;2023-02-12T05:33:22;34.30;;;13.13;;
49384;SDS011;36795;45.028;38.968;2023-02-12T05:36:09;30.37;;;11.25;;
49384;SDS011;36795;45.028;38.968;2023-02-12T05:38:56;35.28;;;13.82;;
49384;SDS011;36795;45.028;38.968;2023-02-12T05:41:44;33.63;;;13.93;;
49384;SDS011;36795;45.028;38.968;2023-02-12T05:44:30;33.90;;;14.70;;
49384;SDS011;36795;45.028;38.968;2023-02-12T05:47:17;38.25;;;15.52;;
49384;SDS011;36795;45.028;38.968;2023-02-12T05:50:03;37.92;;;15.70;;
49384;SDS011;36795;45.028;38.968;2023-02-12T05:52:49;33.30;;;14.65;;
49384;SDS011;36795;45.028;38.968;2023-02-12T05:55:35;39.95;;;15.73;;
49384;SDS011;36795;45.028;38.968;2023-02-12T05:58:22;39.50;;;16.92;;
49384;SDS011;36795;45.028;38.968;2023-02-12T06:01:09;32.33;;;12.52;;
49384;SDS011;36795;45.028;38.968;2023-02-12T06:03:57;33.42;;;12.90;;
49384;SDS011;36795;45.028;38.968;2023-02-12T06:06:43;35.92;;;14.45;;
49384;SDS011;36795;45.028;38.968;2023-02-12T06:09:30;28.60;;;11.50;;
49384;SDS011;36795;45.028;38.968;2023-02-12T06:12:16;32.97;;;13.40;;
49384;SDS011;36795;45.028;38.968;2023-02-12T06:15:03;30.08;;;11.45;;
49384;SDS011;36795;45.028;38.968;2023-02-12T06:17:49;30.48;;;11.93;;
49384;SDS011;36795;45.028;38.968;2023-02-12T06:20:37;25.05;;;8.68;;
49384;SDS011;36795;45.028;38.968;2023-02-12T06:23:23;28.92;;;9.27;;
49384;SDS011;36795;45.028;38.968;2023-02-12T06:26:10;26.33;;;8.98;;
49384;SDS011;36795;45.028;38.968;2023-02-12T06:28:56;25.65;;;8.23;;
49384;SDS011;36795;45.028;38.968;2023-02-12T06:31:42;20.73;;;6.15;;
49384;SDS011;36795;45.028;38.968;2023-02-12T06:34:28;21.40;;;6.47;;
49384;SDS011;36795;45.028;38.968;2023-02-12T06:37:15;21.17;;;6.45;;
49384;SDS011;36795;45.028;38.968;2023-02-12T06:40:01;18.98;;;5.37;;
49384;SDS011;36795;45.028;38.968;2023-02-12T06:42:47;22.35;;;6.37;;
49384;SDS011;36795;45.028;38.968;2023-02-12T06:45:34;18.60;;;4.85;;
49384;SDS011;36795;45.028;38.968;2023-02-12T06:48:20;17.73;;;4.95;;
49384;SDS011;36795;45.028;38.968;2023-02-12T06:51:10;22.30;;;5.78;;
49384;SDS011;36795;45.028;38.968;2023-02-12T06:53:57;21.17;;;5.90;;
49384;SDS011;36795;45.028;38.968;2023-02-12T06:56:43;18.35;;;5.03;;
49384;SDS011;36795;45.028;38.968;2023-02-12T06:59:30;18.15;;;4.62;;
49384;SDS011;36795;45.028;38.968;2023-02-12T07:02:16;22.50;;;5.78;;
49384;SDS011;36795;45.028;38.968;2023-02-12T07:05:02;21.85;;;5.97;;
49384;SDS011;36795;45.028;38.968;2023-02-12T07:07:48;18.37;;;4.93;;
49384;SDS011;36795;45.028;38.968;2023-02-12T07:10:35;18.83;;;5.62;;
49384;SDS011;36795;45.028;38.968;2023-02-12T07:13:21;22.87;;;5.57;;
49384;SDS011;36795;45.028;38.968;2023-02-12T07:16:12;19.08;;;4.95;;
49384;SDS011;36795;45.028;38.968;2023-02-12T07:18:58;17.42;;;5.30;;
49384;SDS011;36795;45.028;38.968;2023-02-12T07:21:45;17.52;;;4.57;;
49384;SDS011;36795;45.028;38.968;2023-02-12T07:24:31;14.55;;;4.30;;
49384;SDS011;36795;45.028;38.968;2023-02-12T07:27:17;16.95;;;4.03;;
49384;SDS011;36795;45.028;38.968;2023-02-12T07:30:04;15.48;;;4.00;;
49384;SDS011;36795;45.028;38.968;2023-02-12T07:32:51;13.07;;;2.97;;
49384;SDS011;36795;45.028;38.968;2023-02-12T07:35:37;14.98;;;3.95;;
49384;SDS011;36795;45.028;38.968;2023-02-12T07:38:23;14.48;;;3.60;;
49384;SDS011;36795;45.028;38.968;2023-02-12T07:41:11;14.70;;;3.28;;
49384;SDS011;36795;45.028;38.968;2023-02-12T07:43:59;14.30;;;3.62;;
49384;SDS011;36795;45.028;38.968;2023-02-12T07:46:47;11.85;;;3.30;;
49384;SDS011;36795;45.028;38.968;2023-02-12T07:49:34;13.15;;;3.50;;
49384;SDS011;36795;45.028;38.968;2023-02-12T07:52:20;12.63;;;3.28;;
49384;SDS011;36795;45.028;38.968;2023-02-12T07:55:07;13.70;;;3.97;;
49384;SDS011;36795;45.028;38.968;2023-02-12T07:57:52;12.88;;;3.33;;
49384;SDS011;36795;45.028;38.968;2023-02-12T08:00:39;13.50;;;3.50;;
49384;SDS011;36795;45.028;38.968;2023-02-12T08:03:29;10.10;;;2.78;;
49384;SDS011;36795;45.028;38.968;2023-02-12T08:06:16;14.23;;;3.97;;
49384;SDS011;36795;45.028;38.968;2023-02-12T08:09:04;11.20;;;3.30;;
49384;SDS011;36795;45.028;38.968;2023-02-12T08:11:51;16.83;;;3.60;;
49384;SDS011;36795;45.028;38.968;2023-02-12T08:14:37;15.13;;;4.18;;
49384;SDS011;36795;45.028;38.968;2023-02-12T08:17:23;16.73;;;4.07;;
49384;SDS011;36795;45.028;38.968;2023-02-12T08:20:09;13.45;;;3.22;;
49384;SDS011;36795;45.028;38.968;2023-02-12T08:22:55;12.98;;;3.67;;
49384;SDS011;36795;45.028;38.968;2023-02-12T08:25:42;12.10;;;3.17;;
49384;SDS011;36795;45.028;38.968;2023-02-12T08:28:28;12.65;;;3.70;;
49384;SDS011;36795;45.028;38.968;2023-02-12T08:31:16;11.00;;;3.40;;
49384;SDS011;36795;45.028;38.968;2023-02-12T08:34:04;8.70;;;2.72;;
49384;SDS011;36795;45.028;38.968;2023-02-12T08:36:51;9.25;;;2.87;;
49384;SDS011;36795;45.028;38.968;2023-02-12T08:39:40;11.60;;;2.90;;
49384;SDS011;36795;45.028;38.968;2023-02-12T08:42:27;16.00;;;3.00;;
49384;SDS011;36795;45.028;38.968;2023-02-12T08:45:13;11.63;;;3.17;;
49384;SDS011;36795;45.028;38.968;2023-02-12T08:47:59;11.90;;;3.40;;
49384;SDS011;36795;45.028;38.968;2023-02-12T08:50:45;10.80;;;2.92;;
49384;SDS011;36795;45.028;38.968;2023-02-12T08:53:32;8.77;;;2.58;;
49384;SDS011;36795;45.028;38.968;2023-02-12T08:56:19;11.43;;;3.00;;
49384;SDS011;36795;45.028;38.968;2023-02-12T08:59:06;10.02;;;2.95;;
49384;SDS011;36795;45.028;38.968;2023-02-12T09:01:52;13.10;;;3.20;;
49384;SDS011;36795;45.028;38.968;2023-02-12T09:04:39;13.98;;;3.22;;
49384;SDS011;36795;45.028;38.968;2023-02-12T09:07:25;14.70;;;3.53;;
49384;SDS011;36795;45.028;38.968;2023-02-12T09:10:11;11.50;;;2.97;;
49384;SDS011;36795;45.028;38.968;2023-02-12T09:12:58;11.68;;;3.00;;
49384;SDS011;36795;45.028;38.968;2023-02-12T09:15:44;9.88;;;2.40;;
49384;SDS011;36795;45.028;38.968;2023-02-12T09:18:30;12.98;;;2.97;;
49384;SDS011;36795;45.028;38.968;2023-02-12T09:21:16;9.05;;;2.90;;
49384;SDS011;36795;45.028;38.968;2023-02-12T09:24:03;10.32;;;2.72;;
49384;SDS011;36795;45.028;38.968;2023-02-12T09:26:50;9.32;;;2.80;;
49384;SDS011;36795;45.028;38.968;2023-02-12T09:29:36;10.77;;;2.97;;
49384;SDS011;36795;45.028;38.968;2023-02-12T09:32:22;12.07;;;3.92;;
49384;SDS011;36795;45.028;38.968;2023-02-12T09:35:08;13.20;;;3.22;;
49384;SDS011;36795;45.028;38.968;2023-02-12T09:37:57;10.88;;;3.30;;
49384;SDS011;36795;45.028;38.968;2023-02-12T09:43:36;14.23;;;3.40;;
49384;SDS011;36795;45.028;38.968;2023-02-12T09:49:14;13.32;;;3.70;;
49384;SDS011;36795;45.028;38.968;2023-02-12T09:52:01;11.57;;;3.20;;
49384;SDS011;36795;45.028;38.968;2023-02-12T09:54:49;10.82;;;3.20;;
49384;SDS011;36795;45.028;38.968;2023-02-12T09:57:36;12.88;;;3.40;;
49384;SDS011;36795;45.028;38.968;2023-02-12T10:00:24;11.50;;;3.05;;
49384;SDS011;36795;45.028;38.968;2023-02-12T10:03:14;10.38;;;3.00;;
49384;SDS011;36795;45.028;38.968;2023-02-12T10:06:02;10.43;;;3.15;;
49384;SDS011;36795;45.028;38.968;2023-02-12T10:27:10;18.80;;;5.10;;
49384;SDS011;36795;45.028;38.968;2023-02-12T10:29:57;11.52;;;3.60;;
49384;SDS011;36795;45.028;38.968;2023-02-12T10:32:45;11.05;;;3.47;;
49384;SDS011;36795;45.028;38.968;2023-02-12T10:35:33;14.63;;;3.75;;
49384;SDS011;36795;45.028;38.968;2023-02-12T10:38:20;13.82;;;3.60;;
49384;SDS011;36795;45.028;38.968;2023-02-12T10:41:08;14.27;;;3.53;;
49384;SDS011;36795;45.028;38.968;2023-02-12T10:43:56;17.33;;;5.00;;
49384;SDS011;36795;45.028;38.968;2023-02-12T10:46:42;13.32;;;3.53;;
49384;SDS011;36795;45.028;38.968;2023-02-12T10:49:30;15.65;;;3.33;;
49384;SDS011;36795;45.028;38.968;2023-02-12T10:55:25;12.75;;;3.55;;
49384;SDS011;36795;45.028;38.968;2023-02-12T10:58:21;13.55;;;3.37;;
49384;SDS011;36795;45.028;38.968;2023-02-12T11:04:29;16.85;;;4.00;;
49384;SDS011;36795;45.028;38.968;2023-02-12T11:07:14;17.52;;;4.90;;
49384;SDS011;36795;45.028;38.968;2023-02-12T11:10:00;12.75;;;3.22;;
49384;SDS011;36795;45.028;38.968;2023-02-12T11:12:46;9.52;;;2.78;;
49384;SDS011;36795;45.028;38.968;2023-02-12T11:15:37;13.15;;;3.33;;
49384;SDS011;36795;45.028;38.968;2023-02-12T11:18:24;14.52;;;3.75;;
49384;SDS011;36795;45.028;38.968;2023-02-12T11:21:11;13.60;;;3.53;;
49384;SDS011;36795;45.028;38.968;2023-02-12T11:24:19;13.82;;;3.33;;
49384;SDS011;36795;45.028;38.968;2023-02-12T11:27:10;11.55;;;3.25;;
49384;SDS011;36795;45.028;38.968;2023-02-12T11:30:31;11.57;;;3.08;;
49384;SDS011;36795;45.028;38.968;2023-02-12T11:33:43;13.52;;;3.30;;
49384;SDS011;36795;45.028;38.968;2023-02-12T11:36:23;13.02;;;3.37;;
49384;SDS011;36795;45.028;38.968;2023-02-12T11:39:25;11.90;;;3.33;;
49384;SDS011;36795;45.028;38.968;2023-02-12T11:42:19;9.88;;;3.17;;
49384;SDS011;36795;45.028;38.968;2023-02-12T11:45:14;10.57;;;3.00;;
49384;SDS011;36795;45.028;38.968;2023-02-12T11:48:01;9.93;;;2.58;;
49384;SDS011;36795;45.028;38.968;2023-02-12T11:50:48;12.32;;;3.03;;
49384;SDS011;36795;45.028;38.968;2023-02-12T11:53:40;10.35;;;2.75;;
49384;SDS011;36795;45.028;38.968;2023-02-12T11:56:39;10.05;;;2.72;;
49384;SDS011;36795;45.028;38.968;2023-02-12T12:02:16;12.32;;;3.40;;
49384;SDS011;36795;45.028;38.968;2023-02-12T12:05:12;11.38;;;3.20;;
49384;SDS011;36795;45.028;38.968;2023-02-12T12:08:02;10.10;;;2.53;;
49384;SDS011;36795;45.028;38.968;2023-02-12T12:10:53;10.60;;;3.12;;
49384;SDS011;36795;45.028;38.968;2023-02-12T12:14:01;16.23;;;3.97;;
49384;SDS011;36795;45.028;38.968;2023-02-12T12:17:07;24.33;;;8.45;;
49384;SDS011;36795;45.028;38.968;2023-02-12T12:20:13;15.07;;;3.72;;
49384;SDS011;36795;45.028;38.968;2023-02-12T12:26:25;12.02;;;3.60;;
49384;SDS011;36795;45.028;38.968;2023-02-12T12:29:23;17.75;;;3.97;;
49384;SDS011;36795;45.028;38.968;2023-02-12T12:32:11;16.92;;;3.72;;
49384;SDS011;36795;45.028;38.968;2023-02-12T12:35:00;12.20;;;3.20;;
49384;SDS011;36795;45.028;38.968;2023-02-12T12:37:53;11.35;;;3.12;;
49384;SDS011;36795;45.028;38.968;2023-02-12T12:40:51;11.07;;;2.95;;
49384;SDS011;36795;45.028;38.968;2023-02-12T12:43:45;11.48;;;2.95;;
49384;SDS011;36795;45.028;38.968;2023-02-12T12:58:30;18.40;;;4.57;;
49384;SDS011;36795;45.028;38.968;2023-02-12T13:04:38;12.32;;;3.60;;
49384;SDS011;36795;45.028;38.968;2023-02-12T13:27:45;21.83;;;5.05;;
49384;SDS011;36795;45.028;38.968;2023-02-12T13:34:00;22.25;;;5.53;;
49384;SDS011;36795;45.028;38.968;2023-02-12T13:36:25;18.83;;;4.60;;
49384;SDS011;36795;45.028;38.968;2023-02-12T13:39:17;22.27;;;4.60;;
49384;SDS011;36795;45.028;38.968;2023-02-12T13:48:05;19.48;;;5.50;;
49384;SDS011;36795;45.028;38.968;2023-02-12T13:51:01;11.85;;;3.87;;
49384;SDS011;36795;45.028;38.968;2023-02-12T13:59:38;19.73;;;4.75;;
49384;SDS011;36795;45.028;38.968;2023-02-12T14:02:39;17.35;;;5.03;;
49384;SDS011;36795;45.028;38.968;2023-02-12T14:05:27;17.05;;;5.30;;
49384;SDS011;36795;45.028;38.968;2023-02-12T14:09:06;20.45;;;6.22;;
49384;SDS011;36795;45.028;38.968;2023-02-12T14:11:24;22.02;;;5.97;;
49384;SDS011;36795;45.028;38.968;2023-02-12T14:14:10;16.95;;;4.45;;
49384;SDS011;36795;45.028;38.968;2023-02-12T14:16:57;19.30;;;4.97;;
49384;SDS011;36795;45.028;38.968;2023-02-12T14:26:25;17.67;;;4.75;;
49384;SDS011;36795;45.028;38.968;2023-02-12T14:29:17;17.15;;;4.47;;
49384;SDS011;36795;45.028;38.968;2023-02-12T14:47:13;21.25;;;5.28;;
49384;SDS011;36795;45.028;38.968;2023-02-12T14:52:50;28.58;;;9.00;;
49384;SDS011;36795;45.028;38.968;2023-02-12T14:55:37;20.35;;;6.37;;
49384;SDS011;36795;45.028;38.968;2023-02-12T14:58:27;24.65;;;7.53;;
49384;SDS011;36795;45.028;38.968;2023-02-12T15:01:16;26.42;;;7.30;;
49384;SDS011;36795;45.028;38.968;2023-02-12T15:04:11;20.98;;;6.80;;
49384;SDS011;36795;45.028;38.968;2023-02-12T15:07:04;23.87;;;6.70;;
49384;SDS011;36795;45.028;38.968;2023-02-12T15:12:50;20.90;;;6.55;;
49384;SDS011;36795;45.028;38.968;2023-02-12T15:15:43;25.35;;;7.22;;
49384;SDS011;36795;45.028;38.968;2023-02-12T15:18:52;22.95;;;8.10;;
49384;SDS011;36795;45.028;38.968;2023-02-12T15:21:36;24.92;;;9.40;;
49384;SDS011;36795;45.028;38.968;2023-02-12T15:24:23;24.33;;;8.43;;
49384;SDS011;36795;45.028;38.968;2023-02-12T15:27:10;23.60;;;8.40;;
49384;SDS011;36795;45.028;38.968;2023-02-12T15:29:57;25.90;;;8.85;;
49384;SDS011;36795;45.028;38.968;2023-02-12T15:32:44;24.50;;;8.30;;
49384;SDS011;36795;45.028;38.968;2023-02-12T15:35:31;22.27;;;7.15;;
49384;SDS011;36795;45.028;38.968;2023-02-12T15:38:23;28.70;;;8.68;;
49384;SDS011;36795;45.028;38.968;2023-02-12T15:44:30;25.42;;;9.32;;
49384;SDS011;36795;45.028;38.968;2023-02-12T15:47:18;24.15;;;7.50;;
49384;SDS011;36795;45.028;38.968;2023-02-12T15:50:12;20.17;;;6.37;;
49384;SDS011;36795;45.028;38.968;2023-02-12T15:52:58;23.50;;;6.78;;
49384;SDS011;36795;45.028;38.968;2023-02-12T15:55:46;22.48;;;7.55;;
49384;SDS011;36795;45.028;38.968;2023-02-12T15:58:37;25.50;;;7.35;;
49384;SDS011;36795;45.028;38.968;2023-02-12T16:01:28;24.50;;;7.72;;
49384;SDS011;36795;45.028;38.968;2023-02-12T16:04:15;25.90;;;7.45;;
49384;SDS011;36795;45.028;38.968;2023-02-12T16:07:01;23.33;;;6.55;;
49384;SDS011;36795;45.028;38.968;2023-02-12T16:09:48;23.42;;;6.90;;
49384;SDS011;36795;45.028;38.968;2023-02-12T16:12:34;21.80;;;5.68;;
49384;SDS011;36795;45.028;38.968;2023-02-12T16:15:23;22.05;;;6.15;;
49384;SDS011;36795;45.028;38.968;2023-02-12T16:18:23;21.05;;;6.45;;
49384;SDS011;36795;45.028;38.968;2023-02-12T16:21:14;18.52;;;5.22;;
49384;SDS011;36795;45.028;38.968;2023-02-12T16:24:01;17.75;;;4.93;;
49384;SDS011;36795;45.028;38.968;2023-02-12T16:26:48;19.70;;;6.00;;
49384;SDS011;36795;45.028;38.968;2023-02-12T16:29:35;18.50;;;5.00;;
49384;SDS011;36795;45.028;38.968;2023-02-12T16:32:44;20.10;;;5.80;;
49384;SDS011;36795;45.028;38.968;2023-02-12T16:35:31;17.40;;;5.28;;
49384;SDS011;36795;45.028;38.968;2023-02-12T16:46:46;21.42;;;6.12;;
49384;SDS011;36795;45.028;38.968;2023-02-12T16:49:33;17.90;;;5.12;;
49384;SDS011;36795;45.028;38.968;2023-02-12T16:55:13;20.60;;;5.53;;
49384;SDS011;36795;45.028;38.968;2023-02-12T16:57:59;19.20;;;5.57;;
49384;SDS011;36795;45.028;38.968;2023-02-12T17:00:46;20.80;;;6.95;;
49384;SDS011;36795;45.028;38.968;2023-02-12T17:03:33;20.25;;;5.70;;
49384;SDS011;36795;45.028;38.968;2023-02-12T17:06:20;18.83;;;5.55;;
49384;SDS011;36795;45.028;38.968;2023-02-12T17:09:07;39.60;;;15.80;;
49384;SDS011;36795;45.028;38.968;2023-02-12T17:11:55;19.62;;;6.35;;
49384;SDS011;36795;45.028;38.968;2023-02-12T17:14:41;21.27;;;6.30;;
49384;SDS011;36795;45.028;38.968;2023-02-12T17:17:28;22.27;;;6.95;;
49384;SDS011;36795;45.028;38.968;2023-02-12T17:20:14;23.33;;;7.80;;
49384;SDS011;36795;45.028;38.968;2023-02-12T17:23:01;22.02;;;8.13;;
49384;SDS011;36795;45.028;38.968;2023-02-12T17:25:48;23.25;;;8.00;;
49384;SDS011;36795;45.028;38.968;2023-02-12T17:28:35;23.70;;;8.73;;
49384;SDS011;36795;45.028;38.968;2023-02-12T17:31:21;25.00;;;10.15;;
49384;SDS011;36795;45.028;38.968;2023-02-12T17:34:08;24.60;;;9.30;;
49384;SDS011;36795;45.028;38.968;2023-02-12T17:36:54;26.42;;;10.75;;
49384;SDS011;36795;45.028;38.968;2023-02-12T17:39:41;30.48;;;14.40;;
49384;SDS011;36795;45.028;38.968;2023-02-12T17:42:27;30.50;;;13.77;;
49384;SDS011;36795;45.028;38.968;2023-02-12T17:45:14;32.63;;;14.73;;
49384;SDS011;36795;45.028;38.968;2023-02-12T17:48:01;35.03;;;16.52;;
49384;SDS011;36795;45.028;38.968;2023-02-12T17:50:52;33.28;;;14.32;;
49384;SDS011;36795;45.028;38.968;2023-02-12T17:53:39;33.22;;;16.30;;
49384;SDS011;36795;45.028;38.968;2023-02-12T17:56:26;32.30;;;15.18;;
49384;SDS011;36795;45.028;38.968;2023-02-12T17:59:12;36.85;;;16.58;;
49384;SDS011;36795;45.028;38.968;2023-02-12T18:02:00;36.38;;;17.95;;
49384;SDS011;36795;45.028;38.968;2023-02-12T18:04:47;38.80;;;19.75;;
49384;SDS011;36795;45.028;38.968;2023-02-12T18:07:33;33.88;;;17.90;;
49384;SDS011;36795;45.028;38.968;2023-02-12T18:10:20;37.13;;;18.85;;
49384;SDS011;36795;45.028;38.968;2023-02-12T18:13:06;36.38;;;17.62;;
49384;SDS011;36795;45.028;38.968;2023-02-12T18:15:53;35.42;;;17.05;;
49384;SDS011;36795;45.028;38.968;2023-02-12T18:18:40;41.85;;;21.23;;
49384;SDS011;36795;45.028;38.968;2023-02-12T18:21:26;39.78;;;19.20;;
49384;SDS011;36795;45.028;38.968;2023-02-12T18:24:13;38.10;;;19.92;;
49384;SDS011;36795;45.028;38.968;2023-02-12T18:27:00;40.33;;;20.05;;
49384;SDS011;36795;45.028;38.968;2023-02-12T18:29:46;40.65;;;20.75;;
49384;SDS011;36795;45.028;38.968;2023-02-12T18:32:32;40.85;;;19.73;;
49384;SDS011;36795;45.028;38.968;2023-02-12T18:35:18;35.33;;;16.37;;
49384;SDS011;36795;45.028;38.968;2023-02-12T18:38:04;34.20;;;15.95;;
49384;SDS011;36795;45.028;38.968;2023-02-12T18:40:50;35.03;;;13.07;;
49384;SDS011;36795;45.028;38.968;2023-02-12T18:43:39;29.87;;;12.37;;
49384;SDS011;36795;45.028;38.968;2023-02-12T18:46:26;30.85;;;12.57;;
49384;SDS011;36795;45.028;38.968;2023-02-12T18:49:14;30.58;;;12.75;;
49384;SDS011;36795;45.028;38.968;2023-02-12T18:52:00;27.45;;;10.93;;
49384;SDS011;36795;45.028;38.968;2023-02-12T18:54:46;27.30;;;10.10;;
49384;SDS011;36795;45.028;38.968;2023-02-12T18:57:32;28.00;;;10.38;;
49384;SDS011;36795;45.028;38.968;2023-02-12T19:00:19;27.85;;;10.35;;
49384;SDS011;36795;45.028;38.968;2023-02-12T19:03:05;27.60;;;11.20;;
49384;SDS011;36795;45.028;38.968;2023-02-12T19:05:52;29.75;;;11.15;;
49384;SDS011;36795;45.028;38.968;2023-02-12T19:08:38;28.50;;;10.98;;
49384;SDS011;36795;45.028;38.968;2023-02-12T19:11:25;31.10;;;12.15;;
49384;SDS011;36795;45.028;38.968;2023-02-12T19:14:14;28.50;;;11.55;;
49384;SDS011;36795;45.028;38.968;2023-02-12T19:17:01;31.15;;;11.80;;